createdAt,value
2023-04-10T00:01:48.311Z,14.70
2023-04-10T00:06:50.067Z,14.38
2023-04-10T00:11:51.552Z,13.80
2023-04-10T00:16:53.092Z,13.82
2023-04-10T00:21:55.912Z,12.32
2023-04-10T00:26:57.557Z,10.10
2023-04-10T00:31:59.225Z,10.30
2023-04-10T00:37:00.739Z,10.40
2023-04-10T00:42:02.311Z,9.75
2023-04-10T00:47:07.747Z,10.45
2023-04-10T00:52:09.882Z,10.75
2023-04-10T00:57:11.667Z,9.15
2023-04-10T01:02:13.293Z,8.85
2023-04-10T01:07:32.456Z,9.80
2023-04-10T01:13:05.607Z,9.13
2023-04-10T01:18:29.784Z,7.72
2023-04-10T01:23:49.672Z,9.07
2023-04-10T01:29:01.213Z,9.43
2023-04-10T01:34:09.518Z,9.75
2023-04-10T01:39:11.831Z,8.68
2023-04-10T01:44:15.818Z,9.57
2023-04-10T01:49:18.627Z,8.38
2023-04-10T01:54:20.883Z,9.07
2023-04-10T01:59:23.123Z,8.57
2023-04-10T02:04:26.612Z,9.10
2023-04-10T02:09:40.799Z,8.68
2023-04-10T02:14:46.645Z,9.18
2023-04-10T02:19:51.134Z,7.77
2023-04-10T02:24:53.797Z,7.95
2023-04-10T02:29:55.281Z,8.02
2023-04-10T02:34:57.102Z,8.07
2023-04-10T02:39:58.620Z,8.20
2023-04-10T02:45:00.169Z,8.10
2023-04-10T02:50:01.897Z,8.25
2023-04-10T02:55:03.396Z,9.18
2023-04-10T03:00:05.372Z,7.78
2023-04-10T03:05:08.718Z,8.00
2023-04-10T03:10:10.243Z,7.70
2023-04-10T03:15:12.609Z,7.90
2023-04-10T03:20:14.020Z,7.65
2023-04-10T03:25:15.994Z,8.65
2023-04-10T03:30:17.620Z,8.02
2023-04-10T03:35:19.118Z,7.80
2023-04-10T03:40:20.780Z,8.13
2023-04-10T03:45:22.190Z,8.50
2023-04-10T03:50:23.600Z,8.20
2023-04-10T03:55:25.292Z,8.95
2023-04-10T04:00:27.182Z,7.88
2023-04-10T04:05:28.682Z,7.88
2023-04-10T04:10:30.274Z,8.52
2023-04-10T04:15:31.709Z,8.13
2023-04-10T04:20:33.144Z,9.13
2023-04-10T04:25:34.621Z,9.43
2023-04-10T04:30:36.034Z,9.30
2023-04-10T04:35:37.605Z,8.25
2023-04-10T04:40:39.006Z,8.25
2023-04-10T04:45:40.548Z,7.93
2023-04-10T04:50:42.113Z,9.10
2023-04-10T04:55:43.484Z,9.32
2023-04-10T05:00:44.837Z,10.57
2023-04-10T05:05:46.230Z,10.73
2023-04-10T05:10:48.144Z,10.73
2023-04-10T05:15:49.647Z,8.95
2023-04-10T05:20:51.338Z,10.05
2023-04-10T05:25:52.774Z,8.93
2023-04-10T05:30:54.254Z,9.00
2023-04-10T05:35:56.638Z,8.40
2023-04-10T05:40:58.035Z,8.77
2023-04-10T05:45:59.481Z,7.28
2023-04-10T05:51:01.051Z,8.75
2023-04-10T05:56:02.544Z,8.85
2023-04-10T06:01:04.215Z,8.50
2023-04-10T06:06:07.424Z,9.05
2023-04-10T06:11:08.881Z,7.75
2023-04-10T06:16:10.796Z,8.77
2023-04-10T06:21:12.233Z,9.02
2023-04-10T06:26:13.799Z,10.60
2023-04-10T06:31:15.618Z,8.55
2023-04-10T06:36:17.819Z,8.55
2023-04-10T06:41:19.275Z,9.00
2023-04-10T06:46:20.993Z,7.75
2023-04-10T06:51:22.415Z,8.18
2023-04-10T06:56:23.881Z,8.35
2023-04-10T07:01:26.520Z,8.35
2023-04-10T07:06:28.967Z,8.57
2023-04-10T07:11:30.427Z,8.48
2023-04-10T07:16:32.710Z,9.50
2023-04-10T07:21:34.170Z,7.30
2023-04-10T07:26:35.610Z,9.10
2023-04-10T07:31:37.167Z,8.23
2023-04-10T07:36:38.858Z,7.22
2023-04-10T07:41:40.484Z,8.43
2023-04-10T07:46:41.950Z,7.85
2023-04-10T07:51:43.398Z,8.30
2023-04-10T07:56:44.770Z,7.20
2023-04-10T08:01:46.198Z,7.78
2023-04-10T08:06:47.879Z,7.50
2023-04-10T08:11:49.376Z,7.00
2023-04-10T08:16:50.940Z,7.85
2023-04-10T08:21:52.401Z,8.57
2023-04-10T08:26:53.853Z,7.43
2023-04-10T08:31:56.438Z,7.25
2023-04-10T08:36:57.943Z,8.10
2023-04-10T08:42:00.559Z,7.55
2023-04-10T08:47:02.923Z,7.72
2023-04-10T08:52:08.130Z,7.28
2023-04-10T08:57:18.698Z,7.70
2023-04-10T09:02:20.653Z,7.88
2023-04-10T09:07:25.953Z,8.85
2023-04-10T09:12:27.409Z,6.70
2023-04-10T09:17:28.864Z,7.95
2023-04-10T09:22:32.914Z,8.82
2023-04-10T09:27:36.123Z,7.57
2023-04-10T09:32:42.872Z,8.68
2023-04-10T09:37:46.711Z,6.93
2023-04-10T09:42:48.266Z,6.78
2023-04-10T09:48:07.822Z,7.55
2023-04-10T09:53:12.082Z,6.80
2023-04-10T09:58:14.290Z,6.80
2023-04-10T10:03:18.080Z,7.18
2023-04-10T10:08:20.596Z,6.43
2023-04-10T10:13:35.316Z,6.07
2023-04-10T10:18:55.596Z,5.93
2023-04-10T10:24:09.699Z,6.10
2023-04-10T10:29:11.476Z,6.03
2023-04-10T10:34:16.654Z,6.43
2023-04-10T10:39:39.893Z,5.95
2023-04-10T10:44:47.641Z,5.63
2023-04-10T10:49:55.462Z,6.18
2023-04-10T10:54:59.448Z,5.30
2023-04-10T11:00:01.338Z,6.05
2023-04-10T11:05:05.501Z,6.50
2023-04-10T11:10:10.699Z,5.72
2023-04-10T11:15:13.098Z,5.57
2023-04-10T11:20:14.894Z,6.07
2023-04-10T11:25:16.724Z,6.25
2023-04-10T11:30:34.740Z,5.63
2023-04-10T11:35:36.243Z,5.13
2023-04-10T11:41:04.534Z,5.18
2023-04-10T11:46:10.191Z,5.60
2023-04-10T11:51:13.927Z,5.45
2023-04-10T11:56:22.074Z,4.82
2023-04-10T12:01:24.167Z,4.95
2023-04-10T12:06:28.566Z,4.85
2023-04-10T12:11:30.187Z,4.50
2023-04-10T12:16:34.062Z,4.10
2023-04-10T12:21:38.648Z,3.55
2023-04-10T12:26:47.898Z,4.68
2023-04-10T12:31:50.324Z,4.57
2023-04-10T12:36:55.099Z,4.55
2023-04-10T12:42:17.809Z,3.55
2023-04-10T12:47:21.445Z,4.57
2023-04-10T12:52:23.369Z,3.80
2023-04-10T12:57:29.512Z,3.88
2023-04-10T13:02:31.276Z,3.78
2023-04-10T13:07:33.592Z,3.70
2023-04-10T13:12:40.622Z,4.13
2023-04-10T13:17:45.740Z,3.30
2023-04-10T13:22:50.463Z,3.50
2023-04-10T13:27:51.990Z,3.20
2023-04-10T13:32:53.627Z,3.42
2023-04-10T13:37:55.172Z,3.20
2023-04-10T13:42:56.797Z,2.78
2023-04-10T13:47:58.317Z,3.67
2023-04-10T13:52:59.940Z,2.95
2023-04-10T13:58:01.530Z,2.67
2023-04-10T14:03:03.378Z,3.20
2023-04-10T14:08:11.822Z,3.58
2023-04-10T14:13:20.315Z,3.40
2023-04-10T14:18:21.810Z,3.60
2023-04-10T14:23:24.697Z,3.40
2023-04-10T14:28:26.216Z,3.88
2023-04-10T14:33:27.848Z,3.38
2023-04-10T14:38:29.501Z,3.45
2023-04-10T14:43:31.116Z,2.95
2023-04-10T14:48:37.335Z,2.75
2023-04-10T14:53:39.951Z,3.97
2023-04-10T14:58:53.360Z,3.95
2023-04-10T15:03:55.184Z,2.70
2023-04-10T15:09:02.409Z,3.25
2023-04-10T15:14:04.036Z,3.47
2023-04-10T15:19:11.057Z,2.95
2023-04-10T15:24:14.569Z,3.45
2023-04-10T15:29:18.261Z,4.22
2023-04-10T15:34:21.459Z,3.63
2023-04-10T15:39:23.007Z,3.95
2023-04-10T15:44:32.177Z,3.83
2023-04-10T15:49:37.799Z,3.55
2023-04-10T15:59:56.388Z,3.70
2023-04-10T16:05:03.360Z,3.60
2023-04-10T16:10:11.647Z,3.30
2023-04-10T16:15:14.582Z,3.50
2023-04-10T16:20:17.339Z,4.57
2023-04-10T16:25:23.270Z,2.92
2023-04-10T16:30:25.004Z,3.50
2023-04-10T16:35:26.917Z,3.00
2023-04-10T16:40:41.448Z,4.07
2023-04-10T16:45:46.039Z,3.88
2023-04-10T16:50:49.902Z,3.95
2023-04-10T16:55:58.666Z,4.10
2023-04-10T17:01:03.269Z,4.63
2023-04-10T17:06:04.889Z,4.63
2023-04-10T17:11:07.162Z,4.90
2023-04-10T17:16:16.893Z,3.90
2023-04-10T17:21:25.622Z,5.32
2023-04-10T17:26:35.911Z,5.72
2023-04-10T17:31:45.352Z,5.15
2023-04-10T17:36:49.828Z,5.10
2023-04-10T17:41:53.081Z,5.20
2023-04-10T17:46:56.875Z,5.03
2023-04-10T17:51:58.396Z,5.93
2023-04-10T17:56:59.907Z,5.30
2023-04-10T18:02:06.776Z,4.82
2023-04-10T18:07:08.350Z,4.03
2023-04-10T18:12:10.761Z,4.40
2023-04-10T18:17:13.388Z,3.83
2023-04-10T18:22:20.523Z,3.90
2023-04-10T18:27:22.086Z,3.63
2023-04-10T18:32:26.509Z,3.55
2023-04-10T18:37:28.080Z,3.05
2023-04-10T18:42:29.653Z,3.15
2023-04-10T18:47:32.344Z,3.70
2023-04-10T18:52:36.472Z,3.67
2023-04-10T18:57:38.098Z,3.85
2023-04-10T19:02:48.153Z,3.78
2023-04-10T19:08:03.692Z,4.43
2023-04-10T19:13:06.375Z,4.45
2023-04-10T19:18:08.714Z,4.30
2023-04-10T19:23:14.619Z,4.13
2023-04-10T19:28:16.169Z,4.47
2023-04-10T19:33:23.599Z,4.25
2023-04-10T19:38:26.212Z,4.13
2023-04-10T19:43:30.336Z,4.28
2023-04-10T19:48:31.916Z,3.67
2023-04-10T19:53:33.345Z,3.97
2023-04-10T19:58:40.436Z,3.78
2023-04-10T20:03:42.995Z,4.00
2023-04-10T20:08:44.735Z,3.95
2023-04-10T20:13:47.704Z,4.15
2023-04-10T20:18:52.178Z,3.83
2023-04-10T20:23:54.125Z,2.90
2023-04-10T20:28:55.924Z,3.60
2023-04-10T20:33:57.799Z,2.92
2023-04-10T20:39:02.529Z,3.00
2023-04-10T20:44:04.365Z,2.70
2023-04-10T20:49:06.582Z,2.42
2023-04-10T20:54:09.020Z,3.45
2023-04-10T20:59:13.572Z,3.22
2023-04-10T21:04:15.463Z,3.45
2023-04-10T21:09:16.979Z,2.30
2023-04-10T21:14:22.728Z,3.80
2023-04-10T21:19:26.596Z,3.17
2023-04-10T21:24:29.719Z,2.55
2023-04-10T21:29:31.208Z,4.00
2023-04-10T21:34:32.763Z,4.32
2023-04-10T21:39:38.725Z,3.70
2023-04-10T21:44:42.359Z,4.20
2023-04-10T21:49:51.480Z,4.03
2023-04-10T21:54:54.763Z,4.20
2023-04-10T21:59:58.709Z,3.80
2023-04-10T22:05:00.387Z,3.83
2023-04-10T22:10:01.934Z,4.10
2023-04-10T22:15:03.969Z,3.33
2023-04-10T22:20:07.157Z,3.30
2023-04-10T22:25:08.821Z,3.65
2023-04-10T22:30:10.959Z,4.38
2023-04-10T22:35:12.482Z,3.58
2023-04-10T22:40:14.285Z,4.03
2023-04-10T22:45:15.836Z,2.85
2023-04-10T22:50:17.291Z,3.95
2023-04-10T22:55:18.712Z,4.45
2023-04-10T23:00:20.296Z,3.13
2023-04-10T23:05:21.729Z,1.80
2023-04-10T23:10:23.508Z,1.42
2023-04-10T23:15:25.185Z,1.20
2023-04-10T23:20:26.776Z,0.88
2023-04-10T23:25:28.242Z,1.23
2023-04-10T23:30:31.257Z,1.33
2023-04-10T23:35:32.699Z,1.45
2023-04-10T23:40:34.190Z,1.70
2023-04-10T23:45:35.667Z,2.65
2023-04-10T23:50:37.091Z,3.42
2023-04-10T23:55:39.341Z,3.35
